Time;durP1;ratioP1;P1;durP2;ratioP2;P2;SDS_P1;SDS_P2;PMS_P1;PMS_P2;Temp;Humidity;BMP_temperature;BMP_pressure;BME280_temperature;BME280_humidity;BME280_pressure;Samples;Min_cycle;Max_cycle;Signal;HPM_P1;HPM_P2
2022/01/07 00:00:56;;;;;;;16.90;4.43;;;5.20;95.80;;;;;;5052105;28;20072;-74
2022/01/07 00:03:22;;;;;;;15.60;4.13;;;5.30;95.90;;;;;;5052756;28;20044;-74
2022/01/07 00:05:48;;;;;;;17.05;4.55;;;5.30;95.80;;;;;;5052329;28;20025;-74
2022/01/07 00:08:14;;;;;;;13.13;3.95;;;5.30;96.00;;;;;;5059352;28;20108;-74
2022/01/07 00:10:40;;;;;;;16.23;3.83;;;5.30;95.90;;;;;;5060793;28;20021;-74
2022/01/07 00:13:06;;;;;;;17.42;4.40;;;5.30;95.80;;;;;;5056241;28;20487;-75
2022/01/07 00:15:31;;;;;;;13.00;3.58;;;5.30;95.80;;;;;;5056027;28;20548;-74
2022/01/07 00:17:58;;;;;;;17.35;3.95;;;5.40;95.70;;;;;;5056531;28;20021;-74
2022/01/07 00:20:24;;;;;;;13.93;3.97;;;5.30;95.20;;;;;;5056254;28;20032;-73
2022/01/07 00:22:51;;;;;;;14.55;4.03;;;5.30;95.00;;;;;;5056462;28;20049;-74
2022/01/07 00:25:17;;;;;;;13.60;3.65;;;5.30;95.00;;;;;;5055718;28;20029;-73
2022/01/07 00:27:44;;;;;;;14.25;3.83;;;5.30;95.30;;;;;;5056357;28;20037;-74
2022/01/07 00:30:11;;;;;;;10.70;3.78;;;5.30;95.40;;;;;;5056102;28;20048;-74
2022/01/07 00:32:37;;;;;;;11.60;3.70;;;5.30;95.50;;;;;;5055862;28;20087;-74
2022/01/07 00:35:04;;;;;;;17.55;4.88;;;5.20;95.60;;;;;;5056157;28;20392;-74
2022/01/07 00:37:30;;;;;;;14.68;4.20;;;5.20;96.10;;;;;;5055354;28;20052;-74
2022/01/07 00:39:56;;;;;;;13.65;3.80;;;5.20;96.20;;;;;;5055915;28;20029;-75
2022/01/07 00:42:22;;;;;;;12.45;3.80;;;5.10;96.00;;;;;;5054508;28;20072;-74
2022/01/07 00:44:47;;;;;;;8.68;3.53;;;5.10;96.30;;;;;;5036249;28;20069;-74
2022/01/07 00:47:13;;;;;;;13.85;3.92;;;5.00;96.60;;;;;;5055011;28;20033;-74
2022/01/07 00:49:38;;;;;;;13.77;4.07;;;5.00;96.80;;;;;;5055508;28;20369;-74
2022/01/07 00:52:05;;;;;;;15.23;3.60;;;4.90;97.00;;;;;;5055262;28;20040;-74
2022/01/07 00:54:30;;;;;;;13.88;3.47;;;4.90;97.20;;;;;;5055398;28;20039;-74
2022/01/07 00:56:56;;;;;;;18.38;3.95;;;4.80;97.40;;;;;;5055211;28;20033;-74
2022/01/07 00:59:22;;;;;;;11.05;3.83;;;4.80;97.90;;;;;;5055468;28;20084;-75
2022/01/07 01:01:48;;;;;;;14.50;3.97;;;4.70;98.30;;;;;;5055029;28;20033;-75
2022/01/07 01:04:14;;;;;;;16.33;4.05;;;4.80;98.70;;;;;;5055607;28;20443;-75
2022/01/07 01:06:41;;;;;;;14.98;4.50;;;4.70;98.80;;;;;;5056867;28;20033;-75
2022/01/07 01:09:10;;;;;;;14.38;4.20;;;4.70;98.50;;;;;;5058595;28;20393;-75
2022/01/07 01:11:36;;;;;;;14.32;4.05;;;4.50;98.80;;;;;;5055030;28;20535;-75
2022/01/07 01:14:03;;;;;;;11.68;3.90;;;4.50;99.40;;;;;;5055428;28;20032;-75
2022/01/07 01:16:29;;;;;;;14.43;4.35;;;4.50;99.70;;;;;;5055116;28;20052;-74
2022/01/07 01:18:55;;;;;;;15.07;4.18;;;4.50;99.90;;;;;;5054101;28;20461;-74
2022/01/07 01:21:20;;;;;;;12.10;4.85;;;4.40;99.90;;;;;;5054694;28;20074;-74
2022/01/07 01:23:46;;;;;;;16.17;5.35;;;4.40;99.90;;;;;;5055110;28;20036;-75
2022/01/07 01:26:13;;;;;;;11.73;4.65;;;4.40;99.90;;;;;;5054732;28;20018;-75
2022/01/07 01:28:39;;;;;;;13.18;4.55;;;4.40;99.90;;;;;;5054769;28;20032;-74
2022/01/07 01:31:04;;;;;;;12.82;4.43;;;4.40;99.90;;;;;;5054546;28;20025;-74
2022/01/07 01:33:30;;;;;;;11.00;4.32;;;4.30;99.90;;;;;;5053690;28;20091;-74
2022/01/07 01:35:56;;;;;;;15.50;4.68;;;4.30;99.90;;;;;;5053952;28;20025;-75
2022/01/07 01:38:21;;;;;;;12.63;4.47;;;4.30;99.90;;;;;;5053657;28;20078;-74
2022/01/07 01:40:47;;;;;;;13.85;4.72;;;4.40;99.90;;;;;;5053702;28;20072;-75
2022/01/07 01:43:13;;;;;;;17.42;4.68;;;4.40;99.90;;;;;;5053690;28;20029;-74
2022/01/07 01:45:38;;;;;;;16.83;4.93;;;4.40;99.90;;;;;;5053667;28;20025;-74
2022/01/07 01:48:04;;;;;;;11.75;4.55;;;4.50;99.90;;;;;;5054167;28;20025;-73
2022/01/07 01:50:30;;;;;;;18.23;4.57;;;4.50;99.90;;;;;;5053318;28;20029;-74
2022/01/07 01:52:56;;;;;;;14.55;4.45;;;4.50;99.90;;;;;;5053591;28;20099;-74
2022/01/07 01:55:25;;;;;;;15.07;3.90;;;4.50;99.90;;;;;;5047962;28;20115;-74
2022/01/07 01:57:52;;;;;;;14.40;4.82;;;4.50;99.90;;;;;;5053185;28;20041;-74
2022/01/07 02:00:22;;;;;;;17.98;5.05;;;4.50;99.90;;;;;;5053104;28;20045;-74
2022/01/07 02:02:48;;;;;;;12.48;4.30;;;4.50;99.90;;;;;;5053166;28;20109;-75
2022/01/07 02:05:14;;;;;;;13.60;4.28;;;4.60;99.90;;;;;;5052952;28;20047;-74
2022/01/07 02:07:41;;;;;;;12.60;4.22;;;4.50;99.90;;;;;;5054429;28;20044;-74
2022/01/07 02:10:09;;;;;;;11.80;4.43;;;4.50;99.90;;;;;;5048472;28;20024;-74
2022/01/07 02:12:35;;;;;;;12.52;4.20;;;4.50;99.90;;;;;;5053305;28;20029;-74
2022/01/07 02:15:01;;;;;;;16.65;4.80;;;4.60;99.90;;;;;;5048715;28;20052;-74
2022/01/07 02:17:27;;;;;;;13.75;4.07;;;4.60;99.90;;;;;;5026342;28;20461;-74
2022/01/07 02:19:53;;;;;;;13.23;3.95;;;4.60;99.90;;;;;;5025503;28;20052;-74
2022/01/07 02:22:19;;;;;;;15.23;4.82;;;4.50;99.90;;;;;;5023996;28;20036;-74
2022/01/07 02:24:47;;;;;;;19.42;4.97;;;4.50;99.90;;;;;;5030548;28;20112;-75
2022/01/07 02:27:14;;;;;;;13.07;4.43;;;4.50;99.90;;;;;;5027201;28;20037;-75
2022/01/07 02:29:42;;;;;;;13.43;4.28;;;4.50;99.90;;;;;;5013815;28;20029;-75
2022/01/07 02:32:07;;;;;;;16.75;4.70;;;4.50;99.90;;;;;;5042030;28;20376;-75
2022/01/07 02:34:33;;;;;;;16.85;5.60;;;4.50;99.90;;;;;;5052884;28;20029;-75
2022/01/07 02:36:59;;;;;;;12.00;4.72;;;4.40;99.90;;;;;;5052561;28;20082;-75
2022/01/07 02:39:24;;;;;;;17.45;4.57;;;4.40;99.90;;;;;;5052674;28;20024;-75
2022/01/07 02:41:50;;;;;;;12.00;3.53;;;4.40;99.90;;;;;;5052223;28;20558;-75
2022/01/07 02:44:16;;;;;;;8.25;3.78;;;4.40;99.90;;;;;;5052842;28;20147;-75
2022/01/07 02:46:41;;;;;;;13.27;4.15;;;4.50;99.90;;;;;;5052289;28;20495;-75
2022/01/07 02:49:12;;;;;;;18.23;4.32;;;4.40;99.90;;;;;;5052993;28;20032;-75
2022/01/07 02:51:38;;;;;;;13.48;4.25;;;4.40;99.90;;;;;;5052583;28;20029;-75
2022/01/07 02:54:05;;;;;;;10.25;3.63;;;4.30;99.90;;;;;;5052260;28;20032;-75
2022/01/07 02:56:31;;;;;;;11.23;4.30;;;4.30;99.90;;;;;;5052629;28;20063;-74
2022/01/07 02:58:57;;;;;;;13.77;3.75;;;4.30;99.90;;;;;;5052012;28;20040;-74
2022/01/07 03:01:22;;;;;;;14.32;3.33;;;4.40;99.90;;;;;;5052481;28;20037;-74
2022/01/07 03:03:48;;;;;;;13.02;3.50;;;4.30;99.90;;;;;;5056536;28;20468;-74
2022/01/07 03:06:14;;;;;;;15.05;3.85;;;4.30;99.90;;;;;;5054674;28;20060;-74
2022/01/07 03:08:40;;;;;;;14.32;4.53;;;4.30;99.90;;;;;;5052221;28;20049;-74
2022/01/07 03:11:05;;;;;;;10.70;3.22;;;4.40;99.90;;;;;;5051828;28;20033;-74
2022/01/07 03:13:31;;;;;;;11.30;3.47;;;4.40;99.90;;;;;;5051738;28;20044;-74
2022/01/07 03:15:56;;;;;;;10.88;2.92;;;4.40;99.90;;;;;;5051864;28;20480;-75
2022/01/07 03:18:22;;;;;;;12.18;3.50;;;4.40;99.90;;;;;;5051641;28;20476;-75
2022/01/07 03:20:48;;;;;;;12.73;3.97;;;4.40;99.90;;;;;;5051500;28;20465;-75
2022/01/07 03:23:14;;;;;;;13.75;3.15;;;4.30;99.90;;;;;;5051654;28;20083;-75
2022/01/07 03:25:42;;;;;;;10.38;3.10;;;4.40;99.90;;;;;;5052134;28;20071;-74
2022/01/07 03:28:10;;;;;;;16.10;4.20;;;4.40;99.90;;;;;;5051855;28;20032;-75
2022/01/07 03:30:36;;;;;;;9.65;3.30;;;4.40;99.90;;;;;;5051739;28;20033;-76
2022/01/07 03:33:01;;;;;;;10.43;3.90;;;4.40;99.90;;;;;;5052294;28;20028;-76
2022/01/07 03:35:27;;;;;;;14.40;3.35;;;4.50;99.90;;;;;;5051381;28;20040;-76
2022/01/07 03:37:53;;;;;;;11.00;3.35;;;4.40;99.90;;;;;;5051563;28;20036;-76
2022/01/07 03:40:19;;;;;;;9.32;3.38;;;4.50;99.90;;;;;;5051276;28;20032;-76
2022/01/07 03:42:46;;;;;;;10.07;3.28;;;4.50;99.90;;;;;;5054530;28;20043;-76
2022/01/07 03:45:13;;;;;;;9.27;2.70;;;4.50;99.90;;;;;;5056660;28;20092;-75
2022/01/07 03:47:39;;;;;;;8.63;2.92;;;4.50;99.90;;;;;;5055374;28;20021;-75
2022/01/07 03:50:11;;;;;;;9.82;3.03;;;4.50;99.90;;;;;;5055932;28;20025;-75
2022/01/07 03:52:37;;;;;;;14.35;3.60;;;4.50;99.90;;;;;;5055563;28;20444;-75
2022/01/07 03:55:05;;;;;;;9.05;2.92;;;4.40;99.90;;;;;;5055598;28;20021;-74
2022/01/07 03:57:30;;;;;;;7.38;2.67;;;4.40;99.90;;;;;;5055841;28;20040;-75
2022/01/07 03:59:56;;;;;;;8.48;3.17;;;4.30;99.90;;;;;;5055181;28;20534;-74
2022/01/07 04:02:22;;;;;;;10.68;2.90;;;4.30;99.90;;;;;;5054948;28;20056;-74
2022/01/07 04:04:48;;;;;;;8.90;2.58;;;4.30;99.90;;;;;;5054735;28;20024;-75
2022/01/07 04:07:13;;;;;;;14.35;3.78;;;4.30;99.90;;;;;;5050568;28;20025;-75
2022/01/07 04:09:40;;;;;;;6.47;2.70;;;4.30;99.90;;;;;;5054892;28;20020;-74
2022/01/07 04:12:06;;;;;;;7.95;2.55;;;4.40;99.90;;;;;;5055510;28;20025;-75
2022/01/07 04:14:31;;;;;;;6.47;2.65;;;4.40;99.90;;;;;;5055061;28;20043;-74
2022/01/07 04:16:59;;;;;;;8.05;3.03;;;4.40;99.90;;;;;;5054914;28;20029;-75
2022/01/07 04:19:24;;;;;;;7.68;3.42;;;4.40;99.90;;;;;;5055019;28;20083;-75
2022/01/07 04:21:51;;;;;;;8.20;2.83;;;4.40;99.90;;;;;;5054664;28;20036;-75
2022/01/07 04:24:17;;;;;;;5.93;2.90;;;4.40;99.90;;;;;;5055039;28;20044;-75
2022/01/07 04:26:43;;;;;;;8.52;3.30;;;4.40;99.90;;;;;;5055420;28;20021;-75
2022/01/07 04:29:09;;;;;;;7.00;3.20;;;4.50;99.90;;;;;;5054832;28;20112;-75
2022/01/07 04:31:35;;;;;;;8.18;2.95;;;4.50;99.90;;;;;;5054988;28;20025;-75
2022/01/07 04:34:00;;;;;;;5.95;2.85;;;4.40;99.90;;;;;;5055157;28;20479;-75
2022/01/07 04:36:26;;;;;;;9.60;2.75;;;4.40;99.90;;;;;;5054919;28;20035;-74
2022/01/07 04:38:52;;;;;;;7.85;3.03;;;4.40;99.90;;;;;;5054531;28;20138;-74
2022/01/07 04:41:17;;;;;;;7.60;2.80;;;4.40;99.90;;;;;;5052959;28;20057;-74
2022/01/07 04:43:43;;;;;;;7.07;2.65;;;4.40;99.90;;;;;;5054782;28;20044;-74
2022/01/07 04:46:08;;;;;;;6.68;3.17;;;4.40;99.90;;;;;;5054533;28;20032;-74
2022/01/07 04:48:34;;;;;;;8.85;2.65;;;4.40;99.90;;;;;;5054756;28;20051;-74
2022/01/07 04:51:00;;;;;;;8.95;3.50;;;4.40;99.90;;;;;;5054966;28;20439;-74
2022/01/07 04:53:26;;;;;;;7.88;2.90;;;4.30;99.90;;;;;;5054593;28;20059;-74
2022/01/07 04:55:53;;;;;;;7.95;3.10;;;4.30;99.90;;;;;;5054352;28;20061;-74
2022/01/07 04:58:19;;;;;;;7.18;3.20;;;4.30;99.90;;;;;;5054556;28;20040;-73
2022/01/07 05:00:45;;;;;;;8.80;3.08;;;4.30;99.90;;;;;;5053875;28;20037;-74
2022/01/07 05:03:11;;;;;;;5.25;3.22;;;4.20;99.90;;;;;;5054678;28;20136;-73
2022/01/07 05:05:37;;;;;;;6.45;3.13;;;4.30;99.90;;;;;;5054165;28;20108;-74
2022/01/07 05:08:03;;;;;;;6.30;2.88;;;4.30;99.90;;;;;;5054351;28;20060;-74
2022/01/07 05:10:30;;;;;;;10.52;4.20;;;4.30;99.90;;;;;;5053836;28;20031;-74
2022/01/07 05:12:56;;;;;;;6.45;3.00;;;4.30;99.90;;;;;;5054007;28;20036;-74
2022/01/07 05:15:23;;;;;;;7.95;3.42;;;4.40;99.90;;;;;;5054203;28;20025;-75
2022/01/07 05:17:49;;;;;;;8.95;3.35;;;4.40;99.90;;;;;;5015676;28;20396;-75
2022/01/07 05:20:16;;;;;;;6.75;3.50;;;4.40;99.90;;;;;;5020489;28;20033;-74
2022/01/07 05:22:42;;;;;;;7.43;3.30;;;4.30;99.90;;;;;;5028112;28;20048;-75
2022/01/07 05:25:10;;;;;;;8.43;3.38;;;4.30;99.90;;;;;;5030526;28;20053;-75
2022/01/07 05:27:36;;;;;;;5.00;3.08;;;4.40;99.90;;;;;;5020124;28;20038;-75
2022/01/07 05:30:04;;;;;;;6.05;2.85;;;4.30;99.90;;;;;;5023988;28;20048;-74
2022/01/07 05:32:30;;;;;;;6.55;3.10;;;4.30;99.90;;;;;;5051556;28;20036;-74
2022/01/07 05:34:56;;;;;;;8.07;3.40;;;4.40;99.90;;;;;;5053853;28;20396;-74
2022/01/07 05:37:21;;;;;;;6.10;3.15;;;4.40;99.90;;;;;;5053726;28;20491;-74
2022/01/07 05:39:47;;;;;;;7.72;3.50;;;4.40;99.90;;;;;;5053759;28;20830;-74
2022/01/07 05:42:12;;;;;;;10.70;3.80;;;4.50;99.90;;;;;;5052871;28;20025;-74
2022/01/07 05:44:38;;;;;;;8.88;3.80;;;4.50;99.90;;;;;;5053960;28;20041;-74
2022/01/07 05:47:04;;;;;;;8.75;3.63;;;4.50;99.90;;;;;;5052896;28;20431;-74
2022/01/07 05:49:30;;;;;;;10.18;3.55;;;4.60;99.90;;;;;;5053848;28;20066;-74
2022/01/07 05:51:56;;;;;;;5.57;3.50;;;4.60;99.90;;;;;;5053112;28;20029;-74
2022/01/07 05:54:21;;;;;;;6.70;3.72;;;4.60;99.90;;;;;;5053252;28;20028;-74
2022/01/07 05:56:47;;;;;;;10.20;4.28;;;4.60;99.90;;;;;;5053358;28;20029;-75
2022/01/07 05:59:12;;;;;;;9.77;4.93;;;4.60;99.90;;;;;;5053644;28;20599;-74
2022/01/07 06:01:38;;;;;;;9.13;4.07;;;4.60;99.90;;;;;;5053436;28;20522;-75
2022/01/07 06:04:04;;;;;;;8.52;4.63;;;4.60;99.90;;;;;;5052743;28;20079;-74
2022/01/07 06:06:29;;;;;;;6.18;4.22;;;4.60;99.90;;;;;;5053200;28;20024;-74
2022/01/07 06:08:55;;;;;;;8.10;4.80;;;4.60;99.90;;;;;;5053014;28;20074;-73
2022/01/07 06:11:20;;;;;;;8.70;4.57;;;4.60;99.90;;;;;;5052990;28;20475;-75
2022/01/07 06:13:47;;;;;;;10.88;5.40;;;4.60;99.90;;;;;;5051598;28;20025;-76
2022/01/07 06:16:13;;;;;;;11.90;5.30;;;4.70;99.90;;;;;;5052235;28;20032;-75
2022/01/07 06:18:51;;;;;;;12.07;5.65;;;4.70;99.90;;;;;;5053076;28;20064;-75
2022/01/07 06:21:19;;;;;;;9.10;5.82;;;4.70;99.90;;;;;;5051719;28;20473;-75
2022/01/07 06:23:44;;;;;;;9.02;6.30;;;4.70;99.90;;;;;;5052532;28;20041;-75
2022/01/07 06:26:10;;;;;;;10.05;6.05;;;4.70;99.90;;;;;;5052117;28;20043;-74
2022/01/07 06:28:35;;;;;;;12.93;6.65;;;4.80;99.90;;;;;;5052991;28;20055;-76
2022/01/07 06:31:01;;;;;;;11.73;6.75;;;4.80;99.90;;;;;;5053201;28;20376;-74
2022/01/07 06:33:26;;;;;;;13.13;6.90;;;4.80;99.90;;;;;;5052742;28;20037;-74
2022/01/07 06:35:52;;;;;;;15.30;7.30;;;4.90;99.90;;;;;;5052677;28;20384;-74
2022/01/07 06:38:18;;;;;;;9.25;7.03;;;4.90;99.90;;;;;;5051184;28;20043;-75
2022/01/07 06:40:43;;;;;;;13.88;7.25;;;4.90;99.90;;;;;;5051483;28;20039;-74
2022/01/07 06:43:09;;;;;;;11.82;7.57;;;4.90;99.90;;;;;;5052755;28;20427;-74
2022/01/07 06:45:34;;;;;;;15.18;7.43;;;5.00;99.90;;;;;;5052247;28;20130;-75
2022/01/07 06:48:00;;;;;;;17.98;7.40;;;5.00;99.90;;;;;;5052592;28;20036;-75
2022/01/07 06:50:26;;;;;;;14.85;7.38;;;5.10;99.90;;;;;;5052527;28;20025;-75
2022/01/07 06:52:51;;;;;;;13.63;8.02;;;5.10;99.90;;;;;;5052136;28;20032;-75
2022/01/07 06:55:18;;;;;;;13.07;7.80;;;5.10;99.90;;;;;;5052122;28;20480;-74
2022/01/07 06:57:43;;;;;;;17.40;7.82;;;5.10;99.90;;;;;;5050110;28;20086;-74
2022/01/07 07:00:09;;;;;;;14.77;7.97;;;5.20;99.90;;;;;;5052062;28;20048;-74
2022/01/07 07:02:35;;;;;;;17.13;8.00;;;5.10;99.90;;;;;;5051990;28;20501;-74
2022/01/07 07:05:00;;;;;;;14.88;8.35;;;5.20;99.90;;;;;;5051766;28;20055;-75
2022/01/07 07:07:26;;;;;;;15.13;8.20;;;5.20;99.90;;;;;;5052845;28;20032;-75
2022/01/07 07:09:52;;;;;;;11.80;7.90;;;5.20;99.90;;;;;;5052697;28;20048;-75
2022/01/07 07:12:17;;;;;;;18.25;9.52;;;5.20;99.90;;;;;;5052184;28;20021;-78
2022/01/07 07:14:43;;;;;;;13.95;7.95;;;5.20;99.90;;;;;;5053458;28;20108;-76
2022/01/07 07:17:10;;;;;;;24.10;8.55;;;5.20;99.90;;;;;;5051880;28;20380;-76
2022/01/07 07:19:36;;;;;;;13.55;8.27;;;5.20;99.90;;;;;;5052599;28;20476;-75
2022/01/07 07:22:02;;;;;;;14.10;8.32;;;5.30;99.90;;;;;;5052687;28;20037;-75
2022/01/07 07:24:27;;;;;;;19.13;7.88;;;5.30;99.90;;;;;;5052908;28;20415;-76
2022/01/07 07:26:53;;;;;;;14.73;8.52;;;5.30;99.90;;;;;;5052162;28;20074;-75
2022/01/07 07:29:19;;;;;;;19.08;8.45;;;5.30;99.90;;;;;;5052663;28;20055;-74
2022/01/07 07:31:49;;;;;;;15.95;8.43;;;5.40;99.90;;;;;;5052450;28;20425;-75
2022/01/07 07:34:31;;;;;;;15.85;8.45;;;5.40;99.90;;;;;;5052537;28;20536;-76
2022/01/07 07:36:56;;;;;;;18.88;9.00;;;5.40;99.90;;;;;;5040957;28;20502;-76
2022/01/07 07:39:22;;;;;;;20.75;9.35;;;5.40;99.90;;;;;;5052301;28;20120;-75
2022/01/07 07:41:48;;;;;;;15.02;9.50;;;5.40;99.90;;;;;;5052693;28;20025;-76
2022/01/07 07:44:14;;;;;;;17.42;9.15;;;5.40;99.90;;;;;;5050905;28;20029;-76
2022/01/07 07:46:40;;;;;;;19.58;8.80;;;5.40;99.90;;;;;;5051504;28;20287;-76
2022/01/07 07:49:08;;;;;;;16.45;8.07;;;5.40;99.90;;;;;;5052698;28;20075;-78
2022/01/07 07:51:34;;;;;;;17.85;8.95;;;5.40;99.90;;;;;;5052724;28;20481;-77
2022/01/07 07:54:00;;;;;;;19.15;8.95;;;5.40;99.90;;;;;;5052481;28;20029;-76
2022/01/07 07:56:26;;;;;;;18.02;8.90;;;5.40;99.90;;;;;;5052580;28;20477;-76
2022/01/07 07:58:52;;;;;;;18.23;9.27;;;5.40;99.90;;;;;;5052292;28;20041;-77
2022/01/07 08:01:18;;;;;;;14.40;8.30;;;5.40;99.90;;;;;;5052552;28;20072;-77
2022/01/07 08:03:45;;;;;;;15.93;9.00;;;5.40;99.90;;;;;;5052625;28;20052;-78
2022/01/07 08:06:11;;;;;;;17.50;8.60;;;5.40;99.90;;;;;;5052316;28;20029;-77
2022/01/07 08:08:38;;;;;;;18.42;9.27;;;5.40;99.90;;;;;;5052464;28;20040;-75
2022/01/07 08:11:07;;;;;;;16.58;8.68;;;5.40;99.90;;;;;;5051731;28;20460;-77
2022/01/07 08:16:19;;;;;;;19.65;9.15;;;5.50;99.90;;;;;;5044411;28;20109;-78
2022/01/07 08:18:49;;;;;;;23.17;9.07;;;5.50;99.90;;;;;;5033879;28;20041;-78
2022/01/07 08:21:15;;;;;;;18.05;8.65;;;5.50;99.90;;;;;;5031560;28;20440;-76
2022/01/07 08:23:43;;;;;;;15.82;8.50;;;5.50;99.90;;;;;;5034419;28;20041;-76
2022/01/07 08:26:10;;;;;;;14.27;9.20;;;5.60;99.90;;;;;;5034503;28;20033;-79
2022/01/07 08:28:44;;;;;;;21.20;8.93;;;5.60;99.90;;;;;;5038331;28;20223;-77
2022/01/07 08:36:30;;;;;;;20.75;8.95;;;5.60;99.90;;;;;;5050325;28;20068;-75
2022/01/07 08:38:57;;;;;;;16.25;8.65;;;5.60;99.90;;;;;;5055676;28;20021;-75
2022/01/07 08:41:26;;;;;;;15.73;8.45;;;5.60;99.90;;;;;;5037733;28;20440;-76
2022/01/07 08:43:52;;;;;;;19.95;8.93;;;5.70;99.90;;;;;;5039116;28;20036;-76
2022/01/07 08:46:17;;;;;;;14.43;9.15;;;5.70;99.90;;;;;;5039568;28;20027;-74
2022/01/07 08:48:43;;;;;;;16.13;8.93;;;5.70;99.90;;;;;;5039723;28;20025;-76
2022/01/07 08:51:09;;;;;;;20.35;8.82;;;5.70;99.90;;;;;;5042191;28;20032;-76
2022/01/07 08:53:36;;;;;;;17.60;9.02;;;5.70;99.90;;;;;;5040298;28;20029;-75
2022/01/07 08:56:02;;;;;;;17.73;8.13;;;5.70;99.90;;;;;;5041499;28;20037;-77
2022/01/07 08:58:28;;;;;;;20.85;9.63;;;5.70;99.90;;;;;;5038139;28;20065;-76
2022/01/07 09:00:53;;;;;;;15.85;8.32;;;5.70;99.90;;;;;;5034528;28;20077;-76
2022/01/07 09:03:19;;;;;;;15.98;9.13;;;5.70;99.90;;;;;;5033673;28;20123;-76
2022/01/07 09:05:45;;;;;;;19.80;9.40;;;5.80;99.90;;;;;;5031404;28;20616;-74
2022/01/07 09:08:12;;;;;;;18.23;9.00;;;5.90;99.90;;;;;;5032325;28;20124;-77
2022/01/07 09:10:41;;;;;;;19.02;8.43;;;5.90;99.90;;;;;;5024604;28;20460;-74
2022/01/07 09:13:07;;;;;;;13.77;8.18;;;5.90;99.90;;;;;;5016932;28;20030;-76
2022/01/07 09:15:33;;;;;;;18.08;9.13;;;6.00;99.90;;;;;;5026814;28;20029;-76
2022/01/07 09:17:59;;;;;;;18.80;9.07;;;6.00;99.90;;;;;;5029026;28;20042;-76
2022/01/07 09:20:25;;;;;;;15.25;8.00;;;6.00;99.90;;;;;;5029414;28;20052;-73
2022/01/07 09:22:53;;;;;;;13.50;8.32;;;6.00;99.90;;;;;;5035213;28;20099;-76
2022/01/07 09:25:19;;;;;;;16.73;8.02;;;6.00;99.90;;;;;;5048646;28;20029;-75
2022/01/07 09:27:44;;;;;;;20.25;9.32;;;6.10;99.90;;;;;;5055331;28;20375;-76
2022/01/07 09:30:11;;;;;;;17.45;8.30;;;6.10;99.90;;;;;;5054692;28;20396;-73
2022/01/07 09:32:37;;;;;;;15.23;8.10;;;6.10;99.90;;;;;;5054751;28;20091;-73
2022/01/07 09:35:04;;;;;;;16.27;7.80;;;6.10;99.90;;;;;;5054147;28;20029;-73
2022/01/07 09:37:30;;;;;;;24.02;9.07;;;6.10;99.90;;;;;;5054758;28;20493;-73
2022/01/07 09:39:56;;;;;;;15.77;8.43;;;6.10;99.90;;;;;;5053659;28;20025;-73
2022/01/07 09:42:21;;;;;;;18.50;8.05;;;6.10;99.90;;;;;;5054591;28;20033;-73
2022/01/07 09:44:48;;;;;;;16.63;8.20;;;6.20;99.90;;;;;;5048889;28;20029;-73
2022/01/07 09:47:14;;;;;;;14.80;7.95;;;6.20;99.90;;;;;;5038836;28;20053;-73
2022/01/07 09:49:41;;;;;;;14.57;7.70;;;6.30;99.90;;;;;;5040890;28;20468;-73
2022/01/07 09:52:08;;;;;;;14.45;8.23;;;6.30;99.90;;;;;;5050126;28;20115;-72
2022/01/07 09:54:36;;;;;;;15.52;7.55;;;6.30;99.90;;;;;;5053629;28;20039;-75
2022/01/07 09:57:06;;;;;;;12.35;6.95;;;6.30;99.90;;;;;;5053888;28;20033;-73
2022/01/07 09:59:36;;;;;;;12.13;7.60;;;6.30;99.90;;;;;;5054509;28;20053;-72
2022/01/07 10:02:09;;;;;;;13.68;6.93;;;6.30;99.90;;;;;;5054207;28;20460;-72
2022/01/07 10:04:40;;;;;;;12.93;7.00;;;6.30;99.90;;;;;;5054293;28;20086;-72
2022/01/07 10:07:12;;;;;;;14.60;7.28;;;6.40;99.90;;;;;;5054354;28;20064;-73
2022/01/07 10:09:39;;;;;;;15.07;7.85;;;6.30;99.90;;;;;;5054288;28;20429;-73
2022/01/07 10:12:06;;;;;;;11.55;6.97;;;6.40;99.90;;;;;;5049536;28;20029;-73
2022/01/07 10:14:32;;;;;;;13.85;7.60;;;6.40;99.90;;;;;;5052706;28;20040;-73
2022/01/07 10:17:00;;;;;;;17.98;7.82;;;6.40;99.90;;;;;;5052323;28;20054;-73
2022/01/07 10:19:41;;;;;;;16.38;8.05;;;6.40;99.90;;;;;;5046673;28;20033;-73
2022/01/07 10:22:09;;;;;;;13.88;7.80;;;6.40;99.90;;;;;;5054340;28;20029;-73
2022/01/07 10:24:53;;;;;;;14.57;7.93;;;6.40;99.90;;;;;;5050262;28;20737;-74
2022/01/07 10:27:20;;;;;;;17.15;8.60;;;6.50;99.90;;;;;;5037592;28;20033;-73
2022/01/07 10:29:46;;;;;;;15.25;7.60;;;6.50;99.90;;;;;;5050018;28;20039;-72
2022/01/07 10:32:29;;;;;;;16.83;8.82;;;6.50;99.90;;;;;;5052736;28;20111;-72
2022/01/07 10:35:09;;;;;;;22.50;9.25;;;6.50;99.90;;;;;;5049752;28;20032;-72
2022/01/07 10:38:02;;;;;;;17.70;9.32;;;6.50;99.90;;;;;;5047326;28;20086;-73
2022/01/07 10:40:38;;;;;;;16.45;8.77;;;6.50;99.90;;;;;;5051079;28;20036;-73
2022/01/07 10:43:16;;;;;;;15.70;8.27;;;6.50;99.90;;;;;;5049377;28;20043;-72
2022/01/07 10:45:53;;;;;;;19.63;8.45;;;6.50;99.90;;;;;;5051412;28;20480;-71
2022/01/07 10:48:21;;;;;;;18.33;8.20;;;6.50;99.90;;;;;;5046232;28;20485;-74
2022/01/07 10:50:49;;;;;;;15.88;7.63;;;6.50;99.90;;;;;;5051718;28;20029;-72
2022/01/07 10:53:22;;;;;;;18.83;8.18;;;6.50;99.90;;;;;;5048804;28;20025;-71
2022/01/07 10:56:00;;;;;;;16.05;7.47;;;6.50;99.90;;;;;;5045542;28;20104;-72
2022/01/07 10:58:26;;;;;;;13.18;6.90;;;6.50;99.90;;;;;;5045214;28;20534;-74
2022/01/07 11:00:52;;;;;;;12.80;6.35;;;6.50;99.90;;;;;;5044422;28;20040;-74
2022/01/07 11:03:18;;;;;;;16.15;7.43;;;6.50;99.90;;;;;;5052357;28;20040;-73
2022/01/07 11:05:43;;;;;;;17.67;6.68;;;6.50;99.90;;;;;;5051261;28;20025;-72
2022/01/07 11:08:09;;;;;;;14.43;6.78;;;6.50;99.90;;;;;;5046206;28;20025;-72
2022/01/07 11:10:38;;;;;;;12.50;6.50;;;6.50;99.90;;;;;;5052160;28;20059;-72
2022/01/07 11:13:04;;;;;;;12.90;6.45;;;6.60;99.90;;;;;;5044720;28;20033;-79
2022/01/07 11:15:29;;;;;;;12.48;6.68;;;6.70;99.90;;;;;;5041233;28;20021;-72
2022/01/07 11:17:55;;;;;;;18.67;6.30;;;6.70;99.90;;;;;;5052275;28;20380;-72
2022/01/07 11:20:24;;;;;;;16.02;5.50;;;6.70;99.90;;;;;;5052096;28;20028;-72
2022/01/07 11:22:50;;;;;;;15.50;5.93;;;6.70;99.90;;;;;;5051983;28;20063;-72
2022/01/07 11:25:16;;;;;;;15.57;5.72;;;6.70;99.90;;;;;;5051903;28;20067;-71
2022/01/07 11:27:54;;;;;;;12.98;5.55;;;6.70;99.90;;;;;;5052085;28;20102;-72
2022/01/07 11:30:23;;;;;;;16.60;5.50;;;6.70;99.90;;;;;;5051640;28;20029;-73
2022/01/07 11:32:51;;;;;;;17.70;5.95;;;6.70;99.90;;;;;;5051606;28;20040;-73
2022/01/07 11:35:19;;;;;;;12.02;4.65;;;6.70;99.90;;;;;;5043445;28;20018;-73
2022/01/07 11:37:48;;;;;;;13.82;4.85;;;6.80;99.90;;;;;;5038590;28;20037;-73
2022/01/07 11:40:49;;;;;;;14.77;5.65;;;6.80;99.90;;;;;;5048858;28;20254;-74
2022/01/07 11:43:20;;;;;;;13.38;5.13;;;6.80;99.90;;;;;;5038862;28;20041;-74
2022/01/07 11:45:47;;;;;;;11.30;4.80;;;6.90;99.90;;;;;;5046299;28;20025;-74
2022/01/07 11:48:24;;;;;;;14.07;5.43;;;6.90;99.90;;;;;;5046762;28;20408;-74
2022/01/07 11:50:55;;;;;;;12.60;4.82;;;6.90;99.90;;;;;;5043483;28;20109;-73
2022/01/07 11:53:36;;;;;;;8.15;4.53;;;7.00;99.90;;;;;;5051362;28;20529;-74
2022/01/07 11:56:03;;;;;;;12.48;4.20;;;7.00;99.90;;;;;;5049387;28;20036;-73
2022/01/07 11:58:41;;;;;;;11.55;4.10;;;7.00;99.90;;;;;;5051178;28;20035;-74
2022/01/07 12:01:21;;;;;;;11.60;4.43;;;7.00;99.90;;;;;;5050152;28;20044;-73
2022/01/07 12:03:49;;;;;;;13.85;4.22;;;7.00;99.90;;;;;;5049645;28;20123;-73
2022/01/07 12:06:24;;;;;;;12.50;4.75;;;7.00;99.90;;;;;;5055044;28;20105;-72
2022/01/07 12:08:58;;;;;;;11.02;3.60;;;7.00;99.90;;;;;;5054869;28;20354;-72
2022/01/07 12:11:39;;;;;;;8.85;3.83;;;7.00;99.90;;;;;;5016744;28;20034;-72
2022/01/07 12:14:17;;;;;;;11.60;3.50;;;7.00;99.90;;;;;;5019391;28;20022;-72
2022/01/07 12:16:49;;;;;;;14.13;3.80;;;7.00;99.90;;;;;;5021381;28;20033;-73
2022/01/07 12:19:25;;;;;;;14.00;4.47;;;7.10;99.90;;;;;;5026063;28;20025;-72
2022/01/07 12:21:57;;;;;;;11.32;2.90;;;7.10;99.90;;;;;;5037191;28;20032;-73
2022/01/07 12:24:25;;;;;;;12.15;3.53;;;7.10;99.90;;;;;;5050207;28;20060;-73
2022/01/07 12:27:03;;;;;;;11.85;3.50;;;7.20;99.90;;;;;;5053188;28;20025;-73
2022/01/07 12:29:33;;;;;;;12.63;3.17;;;7.20;99.90;;;;;;5052410;28;20468;-73
2022/01/07 12:31:59;;;;;;;14.48;3.55;;;7.30;99.90;;;;;;5053938;28;20028;-72
2022/01/07 12:34:26;;;;;;;11.40;3.15;;;7.30;99.90;;;;;;5054727;28;20112;-72
2022/01/07 12:36:57;;;;;;;10.55;3.05;;;7.40;99.90;;;;;;5054672;28;20025;-72
2022/01/07 12:39:31;;;;;;;9.88;3.17;;;7.40;99.90;;;;;;5054078;28;20488;-71
2022/01/07 12:41:57;;;;;;;12.13;3.38;;;7.40;99.90;;;;;;5050878;28;20025;-72
2022/01/07 12:44:24;;;;;;;9.90;3.08;;;7.40;99.80;;;;;;5045827;28;20100;-71
2022/01/07 12:46:55;;;;;;;10.13;4.22;;;7.40;99.80;;;;;;5054204;28;20021;-71
2022/01/07 12:49:33;;;;;;;14.73;3.70;;;7.50;99.80;;;;;;5051943;28;20079;-73
2022/01/07 12:52:04;;;;;;;14.57;3.80;;;7.40;99.50;;;;;;5054388;28;20040;-73
2022/01/07 12:54:30;;;;;;;8.35;3.13;;;7.40;99.40;;;;;;5053129;28;20099;-74
2022/01/07 12:56:55;;;;;;;13.95;4.20;;;7.50;99.60;;;;;;5054236;28;20029;-74